sensor_id;sensor_type;location;lat;lon;timestamp;temperature;humidity
24992;DHT22;13014;48.356;10.884;2022-07-29T00:00:07;16.80;99.90
24992;DHT22;13014;48.356;10.884;2022-07-29T00:00:38;16.70;99.90
24992;DHT22;13014;48.356;10.884;2022-07-29T00:01:09;16.70;99.90
24992;DHT22;13014;48.356;10.884;2022-07-29T00:01:43;16.80;99.90
24992;DHT22;13014;48.356;10.884;2022-07-29T00:02:14;16.80;99.90
24992;DHT22;13014;48.356;10.884;2022-07-29T00:02:45;16.70;99.90
24992;DHT22;13014;48.356;10.884;2022-07-29T00:03:15;16.80;99.90
24992;DHT22;13014;48.356;10.884;2022-07-29T00:03:46;16.80;99.90
24992;DHT22;13014;48.356;10.884;2022-07-29T00:04:16;16.80;99.90
24992;DHT22;13014;48.356;10.884;2022-07-29T00:04:47;16.80;99.90
24992;DHT22;13014;48.356;10.884;2022-07-29T00:05:17;16.80;99.90
24992;DHT22;13014;48.356;10.884;2022-07-29T00:05:48;16.80;99.90
24992;DHT22;13014;48.356;10.884;2022-07-29T00:06:19;16.80;99.90
24992;DHT22;13014;48.356;10.884;2022-07-29T00:06:51;16.70;99.90
24992;DHT22;13014;48.356;10.884;2022-07-29T00:07:21;16.90;99.90
24992;DHT22;13014;48.356;10.884;2022-07-29T00:07:52;16.90;99.90
24992;DHT22;13014;48.356;10.884;2022-07-29T00:08:23;16.80;99.90
24992;DHT22;13014;48.356;10.884;2022-07-29T00:08:53;16.70;99.90
24992;DHT22;13014;48.356;10.884;2022-07-29T00:09:24;16.80;99.90
24992;DHT22;13014;48.356;10.884;2022-07-29T00:09:54;16.80;99.90
24992;DHT22;13014;48.356;10.884;2022-07-29T00:10:25;16.70;99.90
24992;DHT22;13014;48.356;10.884;2022-07-29T00:10:55;16.80;99.90
24992;DHT22;13014;48.356;10.884;2022-07-29T00:11:26;16.70;99.90
24992;DHT22;13014;48.356;10.884;2022-07-29T00:11:57;16.80;99.90
24992;DHT22;13014;48.356;10.884;2022-07-29T00:12:28;16.80;99.90
24992;DHT22;13014;48.356;10.884;2022-07-29T00:12:59;16.70;99.90
24992;DHT22;13014;48.356;10.884;2022-07-29T00:13:29;16.80;99.90
24992;DHT22;13014;48.356;10.884;2022-07-29T00:14:00;16.80;99.90
24992;DHT22;13014;48.356;10.884;2022-07-29T00:14:30;16.80;99.90
24992;DHT22;13014;48.356;10.884;2022-07-29T00:15:01;16.70;99.90
24992;DHT22;13014;48.356;10.884;2022-07-29T00:15:32;16.80;99.90
24992;DHT22;13014;48.356;10.884;2022-07-29T00:16:03;16.70;99.90
24992;DHT22;13014;48.356;10.884;2022-07-29T00:16:34;16.70;99.90
24992;DHT22;13014;48.356;10.884;2022-07-29T00:17:05;16.70;99.90
24992;DHT22;13014;48.356;10.884;2022-07-29T00:17:35;16.80;99.90
24992;DHT22;13014;48.356;10.884;2022-07-29T00:18:06;16.80;99.90
24992;DHT22;13014;48.356;10.884;2022-07-29T00:18:36;16.80;99.90
24992;DHT22;13014;48.356;10.884;2022-07-29T00:19:07;16.80;99.90
24992;DHT22;13014;48.356;10.884;2022-07-29T00:19:38;16.80;99.90
24992;DHT22;13014;48.356;10.884;2022-07-29T00:20:08;16.80;99.90
24992;DHT22;13014;48.356;10.884;2022-07-29T00:20:39;16.80;99.90
24992;DHT22;13014;48.356;10.884;2022-07-29T00:21:10;16.80;99.90
24992;DHT22;13014;48.356;10.884;2022-07-29T00:21:40;16.80;99.90
24992;DHT22;13014;48.356;10.884;2022-07-29T00:22:11;16.80;99.90
24992;DHT22;13014;48.356;10.884;2022-07-29T00:22:41;16.80;99.90
24992;DHT22;13014;48.356;10.884;2022-07-29T00:23:12;16.80;99.90
24992;DHT22;13014;48.356;10.884;2022-07-29T00:23:42;16.80;99.90
24992;DHT22;13014;48.356;10.884;2022-07-29T00:24:13;16.70;99.90
24992;DHT22;13014;48.356;10.884;2022-07-29T00:24:43;16.70;99.90
24992;DHT22;13014;48.356;10.884;2022-07-29T00:25:14;16.80;99.90
24992;DHT22;13014;48.356;10.884;2022-07-29T00:25:45;16.80;99.90
24992;DHT22;13014;48.356;10.884;2022-07-29T00:26:15;16.70;99.90
24992;DHT22;13014;48.356;10.884;2022-07-29T00:26:46;16.70;99.90
24992;DHT22;13014;48.356;10.884;2022-07-29T00:27:17;16.70;99.90
24992;DHT22;13014;48.356;10.884;2022-07-29T00:27:47;16.70;99.90
24992;DHT22;13014;48.356;10.884;2022-07-29T00:28:18;16.70;99.90
24992;DHT22;13014;48.356;10.884;2022-07-29T00:28:48;16.70;99.90
24992;DHT22;13014;48.356;10.884;2022-07-29T00:29:19;16.80;99.90
24992;DHT22;13014;48.356;10.884;2022-07-29T00:29:50;16.80;99.90
24992;DHT22;13014;48.356;10.884;2022-07-29T00:30:20;16.80;99.90
24992;DHT22;13014;48.356;10.884;2022-07-29T00:30:51;16.70;99.90
24992;DHT22;13014;48.356;10.884;2022-07-29T00:31:21;16.70;99.90
24992;DHT22;13014;48.356;10.884;2022-07-29T00:31:52;16.80;99.90
24992;DHT22;13014;48.356;10.884;2022-07-29T00:32:22;16.80;99.90
24992;DHT22;13014;48.356;10.884;2022-07-29T00:32:53;16.80;99.90
24992;DHT22;13014;48.356;10.884;2022-07-29T00:33:24;16.80;99.90
24992;DHT22;13014;48.356;10.884;2022-07-29T00:33:54;16.80;99.90
24992;DHT22;13014;48.356;10.884;2022-07-29T00:34:25;16.80;99.90
24992;DHT22;13014;48.356;10.884;2022-07-29T00:35:14;16.90;99.90
24992;DHT22;13014;48.356;10.884;2022-07-29T00:36:03;16.80;99.90
24992;DHT22;13014;48.356;10.884;2022-07-29T00:36:34;16.80;99.90
24992;DHT22;13014;48.356;10.884;2022-07-29T00:37:05;16.90;99.90
24992;DHT22;13014;48.356;10.884;2022-07-29T00:37:35;16.80;99.90
24992;DHT22;13014;48.356;10.884;2022-07-29T00:38:06;16.90;99.90
24992;DHT22;13014;48.356;10.884;2022-07-29T00:38:36;16.80;99.90
24992;DHT22;13014;48.356;10.884;2022-07-29T00:39:07;16.80;99.90
24992;DHT22;13014;48.356;10.884;2022-07-29T00:39:37;16.80;99.90
24992;DHT22;13014;48.356;10.884;2022-07-29T00:40:08;16.80;99.90
24992;DHT22;13014;48.356;10.884;2022-07-29T00:40:39;16.80;99.90
24992;DHT22;13014;48.356;10.884;2022-07-29T00:41:09;16.80;99.90
24992;DHT22;13014;48.356;10.884;2022-07-29T00:41:40;16.80;99.90
24992;DHT22;13014;48.356;10.884;2022-07-29T00:42:11;16.80;99.90
24992;DHT22;13014;48.356;10.884;2022-07-29T00:42:44;16.70;99.90
24992;DHT22;13014;48.356;10.884;2022-07-29T00:43:15;16.80;99.90
24992;DHT22;13014;48.356;10.884;2022-07-29T00:43:47;16.80;99.90
24992;DHT22;13014;48.356;10.884;2022-07-29T00:44:17;16.70;99.90
24992;DHT22;13014;48.356;10.884;2022-07-29T00:44:48;16.80;99.90
24992;DHT22;13014;48.356;10.884;2022-07-29T00:45:18;16.80;99.90
24992;DHT22;13014;48.356;10.884;2022-07-29T00:45:49;16.80;99.90
24992;DHT22;13014;48.356;10.884;2022-07-29T00:46:20;16.80;99.90
24992;DHT22;13014;48.356;10.884;2022-07-29T00:46:50;16.80;99.90
24992;DHT22;13014;48.356;10.884;2022-07-29T00:47:21;16.80;99.90
24992;DHT22;13014;48.356;10.884;2022-07-29T00:47:51;16.80;99.90
24992;DHT22;13014;48.356;10.884;2022-07-29T00:48:22;16.80;99.90
24992;DHT22;13014;48.356;10.884;2022-07-29T00:48:53;16.80;99.90
24992;DHT22;13014;48.356;10.884;2022-07-29T00:49:23;16.80;99.90
24992;DHT22;13014;48.356;10.884;2022-07-29T00:49:54;16.80;99.90
24992;DHT22;13014;48.356;10.884;2022-07-29T00:50:24;16.70;99.90
24992;DHT22;13014;48.356;10.884;2022-07-29T00:50:56;16.70;99.90
24992;DHT22;13014;48.356;10.884;2022-07-29T00:51:27;16.80;99.90
24992;DHT22;13014;48.356;10.884;2022-07-29T00:51:58;16.70;99.90
24992;DHT22;13014;48.356;10.884;2022-07-29T00:52:30;16.70;99.90
24992;DHT22;13014;48.356;10.884;2022-07-29T00:53:02;16.70;99.90
24992;DHT22;13014;48.356;10.884;2022-07-29T00:53:33;16.70;99.90
24992;DHT22;13014;48.356;10.884;2022-07-29T00:54:04;16.70;99.90
24992;DHT22;13014;48.356;10.884;2022-07-29T00:54:35;16.70;99.90
24992;DHT22;13014;48.356;10.884;2022-07-29T00:55:07;16.70;99.90
24992;DHT22;13014;48.356;10.884;2022-07-29T00:55:38;16.70;99.90
24992;DHT22;13014;48.356;10.884;2022-07-29T00:56:08;16.70;99.90
24992;DHT22;13014;48.356;10.884;2022-07-29T00:56:39;16.70;99.90
24992;DHT22;13014;48.356;10.884;2022-07-29T00:57:10;16.70;99.90
24992;DHT22;13014;48.356;10.884;2022-07-29T00:57:41;16.70;99.90
24992;DHT22;13014;48.356;10.884;2022-07-29T00:58:12;16.70;99.90
24992;DHT22;13014;48.356;10.884;2022-07-29T00:58:44;16.70;99.90
24992;DHT22;13014;48.356;10.884;2022-07-29T00:59:16;16.70;99.90
24992;DHT22;13014;48.356;10.884;2022-07-29T00:59:47;16.60;99.90
24992;DHT22;13014;48.356;10.884;2022-07-29T01:00:19;16.70;99.90
24992;DHT22;13014;48.356;10.884;2022-07-29T01:00:50;16.70;99.90
24992;DHT22;13014;48.356;10.884;2022-07-29T01:01:21;16.70;99.90
24992;DHT22;13014;48.356;10.884;2022-07-29T01:01:52;16.70;99.90
24992;DHT22;13014;48.356;10.884;2022-07-29T01:02:22;16.70;99.90
24992;DHT22;13014;48.356;10.884;2022-07-29T01:02:53;16.60;99.90
24992;DHT22;13014;48.356;10.884;2022-07-29T01:03:24;16.70;99.90
24992;DHT22;13014;48.356;10.884;2022-07-29T01:03:54;16.60;99.90
24992;DHT22;13014;48.356;10.884;2022-07-29T01:04:25;16.70;99.90
24992;DHT22;13014;48.356;10.884;2022-07-29T01:04:56;16.70;99.90
24992;DHT22;13014;48.356;10.884;2022-07-29T01:05:27;16.70;99.90
24992;DHT22;13014;48.356;10.884;2022-07-29T01:05:58;16.70;99.90
24992;DHT22;13014;48.356;10.884;2022-07-29T01:06:29;16.60;99.90
24992;DHT22;13014;48.356;10.884;2022-07-29T01:07:00;16.70;99.90
24992;DHT22;13014;48.356;10.884;2022-07-29T01:07:32;16.70;99.90
24992;DHT22;13014;48.356;10.884;2022-07-29T01:08:04;16.60;99.90
24992;DHT22;13014;48.356;10.884;2022-07-29T01:08:35;16.60;99.90
24992;DHT22;13014;48.356;10.884;2022-07-29T01:09:06;16.70;99.90
24992;DHT22;13014;48.356;10.884;2022-07-29T01:09:36;16.70;99.90
24992;DHT22;13014;48.356;10.884;2022-07-29T01:10:08;16.70;99.90
24992;DHT22;13014;48.356;10.884;2022-07-29T01:10:39;16.70;99.90
24992;DHT22;13014;48.356;10.884;2022-07-29T01:11:11;16.70;99.90
24992;DHT22;13014;48.356;10.884;2022-07-29T01:11:43;16.70;99.90
24992;DHT22;13014;48.356;10.884;2022-07-29T01:12:18;16.70;99.90
24992;DHT22;13014;48.356;10.884;2022-07-29T01:12:51;16.60;99.90
24992;DHT22;13014;48.356;10.884;2022-07-29T01:13:22;16.70;99.90
24992;DHT22;13014;48.356;10.884;2022-07-29T01:13:53;16.60;99.90
24992;DHT22;13014;48.356;10.884;2022-07-29T01:14:24;16.70;99.90
24992;DHT22;13014;48.356;10.884;2022-07-29T01:14:55;16.70;99.90
24992;DHT22;13014;48.356;10.884;2022-07-29T01:15:26;16.70;99.90
24992;DHT22;13014;48.356;10.884;2022-07-29T01:15:59;16.70;99.90
24992;DHT22;13014;48.356;10.884;2022-07-29T01:16:31;16.70;99.90
24992;DHT22;13014;48.356;10.884;2022-07-29T01:17:05;16.70;99.90
24992;DHT22;13014;48.356;10.884;2022-07-29T01:17:52;16.70;99.90
24992;DHT22;13014;48.356;10.884;2022-07-29T01:18:28;16.70;99.90
24992;DHT22;13014;48.356;10.884;2022-07-29T01:19:02;16.70;99.90
24992;DHT22;13014;48.356;10.884;2022-07-29T01:22:24;16.70;99.90
24992;DHT22;13014;48.356;10.884;2022-07-29T01:25:38;16.70;99.90
24992;DHT22;13014;48.356;10.884;2022-07-29T01:25:59;16.70;99.90
24992;DHT22;13014;48.356;10.884;2022-07-29T01:29:00;16.70;99.90
24992;DHT22;13014;48.356;10.884;2022-07-29T01:29:32;16.70;99.90
24992;DHT22;13014;48.356;10.884;2022-07-29T01:30:06;16.70;99.90
24992;DHT22;13014;48.356;10.884;2022-07-29T01:30:37;16.60;99.90
24992;DHT22;13014;48.356;10.884;2022-07-29T01:31:08;16.60;99.90
24992;DHT22;13014;48.356;10.884;2022-07-29T01:31:45;16.70;99.90
24992;DHT22;13014;48.356;10.884;2022-07-29T01:32:25;16.60;99.90
24992;DHT22;13014;48.356;10.884;2022-07-29T01:32:58;16.70;99.90
24992;DHT22;13014;48.356;10.884;2022-07-29T01:33:31;16.70;99.90
24992;DHT22;13014;48.356;10.884;2022-07-29T01:34:21;16.70;99.90
24992;DHT22;13014;48.356;10.884;2022-07-29T01:35:04;16.70;99.90
24992;DHT22;13014;48.356;10.884;2022-07-29T01:35:38;16.70;99.90
24992;DHT22;13014;48.356;10.884;2022-07-29T01:36:11;16.70;99.90
24992;DHT22;13014;48.356;10.884;2022-07-29T01:36:43;16.60;99.90
24992;DHT22;13014;48.356;10.884;2022-07-29T01:37:57;16.70;99.90
24992;DHT22;13014;48.356;10.884;2022-07-29T01:38:28;16.70;99.90
24992;DHT22;13014;48.356;10.884;2022-07-29T01:39:27;16.70;99.90
24992;DHT22;13014;48.356;10.884;2022-07-29T01:39:51;16.70;99.90
24992;DHT22;13014;48.356;10.884;2022-07-29T01:40:54;16.60;99.90
24992;DHT22;13014;48.356;10.884;2022-07-29T01:41:26;16.60;99.90
24992;DHT22;13014;48.356;10.884;2022-07-29T01:42:15;16.60;99.90
24992;DHT22;13014;48.356;10.884;2022-07-29T01:42:51;16.60;99.90
24992;DHT22;13014;48.356;10.884;2022-07-29T01:43:43;16.60;99.90
24992;DHT22;13014;48.356;10.884;2022-07-29T01:44:16;16.60;99.90
24992;DHT22;13014;48.356;10.884;2022-07-29T01:45:37;16.50;99.90
24992;DHT22;13014;48.356;10.884;2022-07-29T01:46:11;16.50;99.90
24992;DHT22;13014;48.356;10.884;2022-07-29T01:46:44;16.50;99.90
24992;DHT22;13014;48.356;10.884;2022-07-29T01:47:20;16.50;99.90
24992;DHT22;13014;48.356;10.884;2022-07-29T01:48:11;16.50;99.90
24992;DHT22;13014;48.356;10.884;2022-07-29T01:48:52;16.50;99.90
24992;DHT22;13014;48.356;10.884;2022-07-29T01:49:30;16.50;99.90
24992;DHT22;13014;48.356;10.884;2022-07-29T01:50:01;16.50;99.90
24992;DHT22;13014;48.356;10.884;2022-07-29T01:50:52;16.50;99.90
24992;DHT22;13014;48.356;10.884;2022-07-29T01:51:25;16.50;99.90
24992;DHT22;13014;48.356;10.884;2022-07-29T01:52:05;16.50;99.90
24992;DHT22;13014;48.356;10.884;2022-07-29T01:52:39;16.50;99.90
24992;DHT22;13014;48.356;10.884;2022-07-29T01:53:12;16.50;99.90
24992;DHT22;13014;48.356;10.884;2022-07-29T01:54:21;16.40;99.90
24992;DHT22;13014;48.356;10.884;2022-07-29T01:54:55;16.40;99.90
24992;DHT22;13014;48.356;10.884;2022-07-29T01:55:28;16.40;99.90
24992;DHT22;13014;48.356;10.884;2022-07-29T01:56:00;16.50;99.90
24992;DHT22;13014;48.356;10.884;2022-07-29T01:56:32;16.40;99.90
24992;DHT22;13014;48.356;10.884;2022-07-29T01:57:04;16.50;99.90
24992;DHT22;13014;48.356;10.884;2022-07-29T01:57:37;16.40;99.90
24992;DHT22;13014;48.356;10.884;2022-07-29T01:58:09;16.40;99.90
24992;DHT22;13014;48.356;10.884;2022-07-29T01:58:41;16.40;99.90
24992;DHT22;13014;48.356;10.884;2022-07-29T01:59:13;16.40;99.90
24992;DHT22;13014;48.356;10.884;2022-07-29T01:59:43;16.40;99.90
24992;DHT22;13014;48.356;10.884;2022-07-29T02:00:15;16.40;99.90
24992;DHT22;13014;48.356;10.884;2022-07-29T02:00:46;16.40;99.90
24992;DHT22;13014;48.356;10.884;2022-07-29T02:01:18;16.40;99.90
24992;DHT22;13014;48.356;10.884;2022-07-29T02:01:50;16.40;99.90
24992;DHT22;13014;48.356;10.884;2022-07-29T02:02:23;16.40;99.90
24992;DHT22;13014;48.356;10.884;2022-07-29T02:02:54;16.40;99.90
24992;DHT22;13014;48.356;10.884;2022-07-29T02:03:26;16.30;99.90
24992;DHT22;13014;48.356;10.884;2022-07-29T02:03:57;16.30;99.90
24992;DHT22;13014;48.356;10.884;2022-07-29T02:04:29;16.30;99.90
24992;DHT22;13014;48.356;10.884;2022-07-29T02:05:01;16.30;99.90
24992;DHT22;13014;48.356;10.884;2022-07-29T02:05:32;16.30;99.90
24992;DHT22;13014;48.356;10.884;2022-07-29T02:06:03;16.30;99.90
24992;DHT22;13014;48.356;10.884;2022-07-29T02:06:34;16.30;99.90
24992;DHT22;13014;48.356;10.884;2022-07-29T02:07:07;16.20;99.90
24992;DHT22;13014;48.356;10.884;2022-07-29T02:07:38;16.30;99.90
24992;DHT22;13014;48.356;10.884;2022-07-29T02:08:10;16.20;99.90
24992;DHT22;13014;48.356;10.884;2022-07-29T02:08:41;16.20;99.90
24992;DHT22;13014;48.356;10.884;2022-07-29T02:09:13;16.30;99.90
24992;DHT22;13014;48.356;10.884;2022-07-29T02:09:45;16.20;99.90
24992;DHT22;13014;48.356;10.884;2022-07-29T02:10:16;16.30;99.90
24992;DHT22;13014;48.356;10.884;2022-07-29T02:10:48;16.20;99.90
24992;DHT22;13014;48.356;10.884;2022-07-29T02:11:20;16.20;99.90
24992;DHT22;13014;48.356;10.884;2022-07-29T02:11:51;16.20;99.90
24992;DHT22;13014;48.356;10.884;2022-07-29T02:12:22;16.20;99.90
24992;DHT22;13014;48.356;10.884;2022-07-29T02:12:54;16.30;99.90
24992;DHT22;13014;48.356;10.884;2022-07-29T02:13:26;16.20;99.90
24992;DHT22;13014;48.356;10.884;2022-07-29T02:13:57;16.20;99.90
24992;DHT22;13014;48.356;10.884;2022-07-29T02:14:30;16.20;99.90
24992;DHT22;13014;48.356;10.884;2022-07-29T02:15:02;16.20;99.90
24992;DHT22;13014;48.356;10.884;2022-07-29T02:15:33;16.20;99.90
24992;DHT22;13014;48.356;10.884;2022-07-29T02:16:05;16.10;99.90
24992;DHT22;13014;48.356;10.884;2022-07-29T02:16:36;16.10;99.90
24992;DHT22;13014;48.356;10.884;2022-07-29T02:17:08;16.10;99.90
24992;DHT22;13014;48.356;10.884;2022-07-29T02:17:44;16.10;99.90
24992;DHT22;13014;48.356;10.884;2022-07-29T02:18:17;16.10;99.90
24992;DHT22;13014;48.356;10.884;2022-07-29T02:18:48;16.10;99.90
24992;DHT22;13014;48.356;10.884;2022-07-29T02:19:19;16.10;99.90
24992;DHT22;13014;48.356;10.884;2022-07-29T02:19:51;16.10;99.90
24992;DHT22;13014;48.356;10.884;2022-07-29T02:20:24;16.10;99.90
24992;DHT22;13014;48.356;10.884;2022-07-29T02:20:55;16.10;99.90
24992;DHT22;13014;48.356;10.884;2022-07-29T02:21:27;16.10;99.90
24992;DHT22;13014;48.356;10.884;2022-07-29T02:21:58;16.10;99.90
24992;DHT22;13014;48.356;10.884;2022-07-29T02:22:30;16.10;99.90
24992;DHT22;13014;48.356;10.884;2022-07-29T02:23:01;16.10;99.90
24992;DHT22;13014;48.356;10.884;2022-07-29T02:23:32;16.10;99.90
24992;DHT22;13014;48.356;10.884;2022-07-29T02:24:05;16.10;99.90
24992;DHT22;13014;48.356;10.884;2022-07-29T02:24:37;16.10;99.90
24992;DHT22;13014;48.356;10.884;2022-07-29T02:25:10;16.10;99.90
24992;DHT22;13014;48.356;10.884;2022-07-29T02:25:41;16.10;99.90
24992;DHT22;13014;48.356;10.884;2022-07-29T02:26:13;16.10;99.90
24992;DHT22;13014;48.356;10.884;2022-07-29T02:26:43;16.00;99.90
24992;DHT22;13014;48.356;10.884;2022-07-29T02:27:14;16.00;99.90
24992;DHT22;13014;48.356;10.884;2022-07-29T02:27:45;16.10;99.90
24992;DHT22;13014;48.356;10.884;2022-07-29T02:28:17;16.00;99.90
24992;DHT22;13014;48.356;10.884;2022-07-29T02:28:48;16.00;99.90
24992;DHT22;13014;48.356;10.884;2022-07-29T02:29:23;16.00;99.90
24992;DHT22;13014;48.356;10.884;2022-07-29T02:29:55;16.00;99.90
24992;DHT22;13014;48.356;10.884;2022-07-29T02:30:26;16.00;99.90
24992;DHT22;13014;48.356;10.884;2022-07-29T02:30:58;16.00;99.90
24992;DHT22;13014;48.356;10.884;2022-07-29T02:31:31;16.10;99.90
24992;DHT22;13014;48.356;10.884;2022-07-29T02:32:02;16.00;99.90
24992;DHT22;13014;48.356;10.884;2022-07-29T02:32:37;16.10;99.90
24992;DHT22;13014;48.356;10.884;2022-07-29T02:33:10;16.10;99.90
24992;DHT22;13014;48.356;10.884;2022-07-29T02:33:42;16.10;99.90
24992;DHT22;13014;48.356;10.884;2022-07-29T02:34:13;16.10;99.90
24992;DHT22;13014;48.356;10.884;2022-07-29T02:34:44;16.10;99.90
24992;DHT22;13014;48.356;10.884;2022-07-29T02:35:16;16.10;99.90
24992;DHT22;13014;48.356;10.884;2022-07-29T02:35:47;16.00;99.90
24992;DHT22;13014;48.356;10.884;2022-07-29T02:36:18;16.10;99.90
24992;DHT22;13014;48.356;10.884;2022-07-29T02:36:51;16.10;99.90
24992;DHT22;13014;48.356;10.884;2022-07-29T02:37:23;16.10;99.90
24992;DHT22;13014;48.356;10.884;2022-07-29T02:37:54;16.00;99.90
24992;DHT22;13014;48.356;10.884;2022-07-29T02:38:44;16.00;99.90
24992;DHT22;13014;48.356;10.884;2022-07-29T02:39:21;16.00;99.90
24992;DHT22;13014;48.356;10.884;2022-07-29T02:39:53;16.00;99.90
24992;DHT22;13014;48.356;10.884;2022-07-29T02:40:25;16.00;99.90
24992;DHT22;13014;48.356;10.884;2022-07-29T02:40:55;16.00;99.90
24992;DHT22;13014;48.356;10.884;2022-07-29T02:41:32;16.00;99.90
24992;DHT22;13014;48.356;10.884;2022-07-29T02:42:06;16.00;99.90
24992;DHT22;13014;48.356;10.884;2022-07-29T02:42:38;16.00;99.90
24992;DHT22;13014;48.356;10.884;2022-07-29T02:43:11;16.10;99.90
24992;DHT22;13014;48.356;10.884;2022-07-29T02:43:42;16.00;99.90
24992;DHT22;13014;48.356;10.884;2022-07-29T02:44:14;16.00;99.90
24992;DHT22;13014;48.356;10.884;2022-07-29T02:44:45;16.00;99.90
24992;DHT22;13014;48.356;10.884;2022-07-29T02:45:16;16.00;99.90
24992;DHT22;13014;48.356;10.884;2022-07-29T02:45:47;16.00;99.90
24992;DHT22;13014;48.356;10.884;2022-07-29T02:46:24;16.00;99.90
24992;DHT22;13014;48.356;10.884;2022-07-29T02:47:07;16.00;99.90
24992;DHT22;13014;48.356;10.884;2022-07-29T02:47:41;16.00;99.90
24992;DHT22;13014;48.356;10.884;2022-07-29T02:48:13;16.00;99.90
24992;DHT22;13014;48.356;10.884;2022-07-29T02:48:49;16.00;99.90
24992;DHT22;13014;48.356;10.884;2022-07-29T02:49:35;16.00;99.90
24992;DHT22;13014;48.356;10.884;2022-07-29T02:50:15;16.00;99.90
24992;DHT22;13014;48.356;10.884;2022-07-29T02:50:49;16.00;99.90
24992;DHT22;13014;48.356;10.884;2022-07-29T02:51:24;16.00;99.90
24992;DHT22;13014;48.356;10.884;2022-07-29T02:51:58;16.00;99.90
24992;DHT22;13014;48.356;10.884;2022-07-29T02:53:20;16.00;99.90
24992;DHT22;13014;48.356;10.884;2022-07-29T02:53:53;16.00;99.90
24992;DHT22;13014;48.356;10.884;2022-07-29T02:54:37;16.00;99.90
24992;DHT22;13014;48.356;10.884;2022-07-29T02:55:11;16.00;99.90
24992;DHT22;13014;48.356;10.884;2022-07-29T02:55:44;16.00;99.90
24992;DHT22;13014;48.356;10.884;2022-07-29T02:56:16;16.00;99.90
24992;DHT22;13014;48.356;10.884;2022-07-29T02:56:49;15.90;99.90
24992;DHT22;13014;48.356;10.884;2022-07-29T02:57:31;16.00;99.90
24992;DHT22;13014;48.356;10.884;2022-07-29T02:58:44;16.00;99.90
24992;DHT22;13014;48.356;10.884;2022-07-29T02:59:15;16.00;99.90
24992;DHT22;13014;48.356;10.884;2022-07-29T02:59:51;16.00;99.90
24992;DHT22;13014;48.356;10.884;2022-07-29T03:00:27;16.00;99.90
24992;DHT22;13014;48.356;10.884;2022-07-29T03:00:59;16.00;99.90
24992;DHT22;13014;48.356;10.884;2022-07-29T03:01:32;16.00;99.90
24992;DHT22;13014;48.356;10.884;2022-07-29T03:02:04;16.00;99.90
24992;DHT22;13014;48.356;10.884;2022-07-29T03:02:36;16.00;99.90
24992;DHT22;13014;48.356;10.884;2022-07-29T03:03:09;15.90;99.90
24992;DHT22;13014;48.356;10.884;2022-07-29T03:03:42;16.00;99.90
24992;DHT22;13014;48.356;10.884;2022-07-29T03:04:12;15.90;99.90
24992;DHT22;13014;48.356;10.884;2022-07-29T03:04:44;16.00;99.90
24992;DHT22;13014;48.356;10.884;2022-07-29T03:05:17;16.00;99.90
24992;DHT22;13014;48.356;10.884;2022-07-29T03:05:48;15.90;99.90
24992;DHT22;13014;48.356;10.884;2022-07-29T03:06:20;15.90;99.90
24992;DHT22;13014;48.356;10.884;2022-07-29T03:06:52;16.00;99.90
24992;DHT22;13014;48.356;10.884;2022-07-29T03:07:23;15.90;99.90
24992;DHT22;13014;48.356;10.884;2022-07-29T03:08:03;16.00;99.90
24992;DHT22;13014;48.356;10.884;2022-07-29T03:08:34;15.90;99.90
24992;DHT22;13014;48.356;10.884;2022-07-29T03:09:06;15.90;99.90
24992;DHT22;13014;48.356;10.884;2022-07-29T03:09:37;15.90;99.90
24992;DHT22;13014;48.356;10.884;2022-07-29T03:10:08;15.90;99.90
24992;DHT22;13014;48.356;10.884;2022-07-29T03:10:39;15.90;99.90
24992;DHT22;13014;48.356;10.884;2022-07-29T03:11:12;15.90;99.90
24992;DHT22;13014;48.356;10.884;2022-07-29T03:11:44;15.90;99.90
24992;DHT22;13014;48.356;10.884;2022-07-29T03:12:14;15.90;99.90
24992;DHT22;13014;48.356;10.884;2022-07-29T03:12:46;15.90;99.90
24992;DHT22;13014;48.356;10.884;2022-07-29T03:13:17;15.90;99.90
24992;DHT22;13014;48.356;10.884;2022-07-29T03:13:49;15.90;99.90
24992;DHT22;13014;48.356;10.884;2022-07-29T03:14:20;15.90;99.90
24992;DHT22;13014;48.356;10.884;2022-07-29T03:14:50;15.90;99.90
24992;DHT22;13014;48.356;10.884;2022-07-29T03:15:21;15.90;99.90
24992;DHT22;13014;48.356;10.884;2022-07-29T03:15:53;15.90;99.90
24992;DHT22;13014;48.356;10.884;2022-07-29T03:16:24;15.90;99.90
24992;DHT22;13014;48.356;10.884;2022-07-29T03:16:55;15.90;99.90
24992;DHT22;13014;48.356;10.884;2022-07-29T03:17:26;15.90;99.90
24992;DHT22;13014;48.356;10.884;2022-07-29T03:17:57;15.90;99.90
24992;DHT22;13014;48.356;10.884;2022-07-29T03:18:28;15.90;99.90
24992;DHT22;13014;48.356;10.884;2022-07-29T03:18:59;15.90;99.90
24992;DHT22;13014;48.356;10.884;2022-07-29T03:19:31;15.80;99.90
24992;DHT22;13014;48.356;10.884;2022-07-29T03:20:02;15.80;99.90
24992;DHT22;13014;48.356;10.884;2022-07-29T03:20:33;15.90;99.90
24992;DHT22;13014;48.356;10.884;2022-07-29T03:21:03;15.80;99.90
24992;DHT22;13014;48.356;10.884;2022-07-29T03:21:34;15.80;99.90
24992;DHT22;13014;48.356;10.884;2022-07-29T03:22:04;15.80;99.90
24992;DHT22;13014;48.356;10.884;2022-07-29T03:22:42;15.80;99.90
24992;DHT22;13014;48.356;10.884;2022-07-29T03:23:19;15.80;99.90
24992;DHT22;13014;48.356;10.884;2022-07-29T03:23:51;15.80;99.90
24992;DHT22;13014;48.356;10.884;2022-07-29T03:24:25;15.80;99.90
24992;DHT22;13014;48.356;10.884;2022-07-29T03:24:56;15.80;99.90
24992;DHT22;13014;48.356;10.884;2022-07-29T03:25:26;15.80;99.90
24992;DHT22;13014;48.356;10.884;2022-07-29T03:25:57;15.80;99.90
24992;DHT22;13014;48.356;10.884;2022-07-29T03:26:28;15.80;99.90
24992;DHT22;13014;48.356;10.884;2022-07-29T03:26:58;15.80;99.90
24992;DHT22;13014;48.356;10.884;2022-07-29T03:27:29;15.90;99.90
24992;DHT22;13014;48.356;10.884;2022-07-29T03:28:00;15.80;99.90
24992;DHT22;13014;48.356;10.884;2022-07-29T03:28:30;15.80;99.90
24992;DHT22;13014;48.356;10.884;2022-07-29T03:29:01;15.80;99.90
24992;DHT22;13014;48.356;10.884;2022-07-29T03:29:31;15.80;99.90
24992;DHT22;13014;48.356;10.884;2022-07-29T03:30:02;15.80;99.90
24992;DHT22;13014;48.356;10.884;2022-07-29T03:30:33;15.80;99.90
24992;DHT22;13014;48.356;10.884;2022-07-29T03:31:04;15.80;99.90
24992;DHT22;13014;48.356;10.884;2022-07-29T03:31:34;15.80;99.90
24992;DHT22;13014;48.356;10.884;2022-07-29T03:32:05;15.80;99.90
24992;DHT22;13014;48.356;10.884;2022-07-29T03:32:36;15.80;99.90
24992;DHT22;13014;48.356;10.884;2022-07-29T03:33:06;15.80;99.90